Terminal Aerodrome Forecast
Issued by NWS Riverton, WY

Home | Current Version | Previous Version | Text Only | Print | Product List | Glossary On
Versions: 1 2 3 4 5 6 7 8 9 10 11 12 13 14 15 16 17 18
379
FTUS45 KRIW 292324
TAFRIW
TAF
KRIW 292324Z 3000/3024 17005KT P6SM SCT030
     FM300100 21005KT P6SM SCT080
     FM300900 00000KT P6SM VCFG SCT080
     FM301500 00000KT P6SM SCT060
     FM301900 33009KT P6SM SCT060 BKN150=

USA.gov is the U.S. government's official web portal to all federal, state and local government web resources and services.